Time;durP1;ratioP1;P1;durP2;ratioP2;P2;SDS_P1;SDS_P2;PMS_P1;PMS_P2;Temp;Humidity;BMP_temperature;BMP_pressure;BME280_temperature;BME280_humidity;BME280_pressure;Samples;Min_cycle;Max_cycle;Signal;HPM_P1;HPM_P2
2023/04/25 00:00:28;;;;;;;7.30;5.30;;;;;;;12.80;70.04;98960.12;131386;1248;106844;-74
2023/04/25 00:03:54;;;;;;;6.00;5.40;;;;;;;12.80;69.86;98961.64;131460;1251;107807;-74
2023/04/25 00:07:01;;;;;;;6.60;5.60;;;;;;;12.84;69.90;98955.20;131472;1261;107561;-74
2023/04/25 00:10:10;;;;;;;7.40;5.80;;;;;;;12.83;70.23;98951.36;131410;1253;105763;-75
2023/04/25 00:13:17;;;;;;;6.70;5.30;;;;;;;12.84;69.91;98948.14;131325;1254;107521;-75
2023/04/25 00:16:23;;;;;;;7.40;5.40;;;;;;;12.83;70.81;98946.05;131312;1252;107506;-75
2023/04/25 00:19:29;;;;;;;5.60;4.60;;;;;;;12.75;70.12;98947.90;131473;1251;107532;-75
2023/04/25 00:22:37;;;;;;;6.60;4.80;;;;;;;12.74;70.38;98946.98;131404;1247;107408;-75
2023/04/25 00:25:42;;;;;;;6.90;5.40;;;;;;;12.72;70.22;98948.88;131456;1253;107495;-76
2023/04/25 00:28:48;;;;;;;10.70;6.50;;;;;;;12.73;70.56;98948.02;131441;1252;107233;-75
2023/04/25 00:31:53;;;;;;;8.50;6.30;;;;;;;12.75;70.10;98950.75;131107;1253;107511;-75
2023/04/25 00:34:59;;;;;;;7.50;5.20;;;;;;;12.78;70.10;98951.84;131330;1254;105772;-75
2023/04/25 00:38:04;;;;;;;6.80;5.70;;;;;;;12.77;70.22;98953.71;131498;1247;107439;-77
2023/04/25 00:41:11;;;;;;;6.30;4.90;;;;;;;12.74;70.39;98954.31;131337;1247;108078;-76
2023/04/25 00:44:18;;;;;;;5.70;4.60;;;;;;;12.70;70.54;98950.76;131425;1253;107499;-76
2023/04/25 00:47:24;;;;;;;6.00;4.90;;;;;;;12.66;70.38;98946.29;131199;1254;108079;-76
2023/04/25 00:50:30;;;;;;;6.60;4.60;;;;;;;12.64;70.69;98942.87;131446;1253;107530;-76
2023/04/25 00:53:36;;;;;;;7.50;4.70;;;;;;;12.65;70.78;98942.17;131501;1252;107464;-77
2023/04/25 00:56:42;;;;;;;5.70;4.40;;;;;;;12.69;70.56;98939.42;131551;1253;107547;-75
2023/04/25 00:59:48;;;;;;;8.10;5.70;;;;;;;12.68;71.25;98942.24;131469;1253;106514;-75
2023/04/25 01:02:54;;;;;;;7.80;5.20;;;;;;;12.58;71.84;98938.72;131578;1252;107385;-74
2023/04/25 01:06:00;;;;;;;8.40;4.90;;;;;;;12.49;71.62;98940.58;131377;1252;106528;-75
2023/04/25 01:09:06;;;;;;;8.50;5.20;;;;;;;12.48;71.13;98943.41;131420;1252;107486;-74
2023/04/25 01:12:12;;;;;;;7.60;4.80;;;;;;;12.46;71.11;98942.95;131425;1253;107529;-75
2023/04/25 01:15:18;;;;;;;6.30;4.40;;;;;;;12.48;71.37;98946.28;131306;1252;106151;-76
2023/04/25 01:18:24;;;;;;;6.00;4.60;;;;;;;12.53;71.43;98942.95;131304;1253;107441;-75
2023/04/25 01:21:30;;;;;;;6.00;4.30;;;;;;;12.54;71.56;98939.53;131445;1248;107291;-75
2023/04/25 01:24:36;;;;;;;5.90;3.90;;;;;;;12.55;71.58;98937.80;131450;1248;107675;-75
2023/04/25 01:27:42;;;;;;;7.20;3.80;;;;;;;12.51;71.79;98939.85;131481;1254;107505;-76
2023/04/25 01:30:49;;;;;;;6.40;3.90;;;;;;;12.44;71.68;98937.63;131325;1253;106863;-76
2023/04/25 01:33:55;;;;;;;3.70;3.00;;;;;;;12.43;71.59;98935.52;131485;1260;107416;-75
2023/04/25 01:37:01;;;;;;;4.00;3.10;;;;;;;12.44;71.53;98938.77;131442;1254;107499;-75
2023/04/25 01:40:10;;;;;;;5.60;3.70;;;;;;;12.45;71.80;98936.73;131475;1253;107366;-75
2023/04/25 01:43:16;;;;;;;4.20;3.30;;;;;;;12.44;71.58;98935.36;131498;1253;107539;-75
2023/04/25 01:46:21;;;;;;;4.30;3.30;;;;;;;12.48;71.69;98935.02;131405;1252;107506;-76
2023/04/25 01:49:28;;;;;;;4.00;3.20;;;;;;;12.51;71.67;98935.11;131549;1253;107453;-76
2023/04/25 01:52:33;;;;;;;5.90;4.00;;;;;;;12.49;71.58;98935.59;131430;1253;107392;-76
2023/04/25 01:55:39;;;;;;;4.80;3.90;;;;;;;12.43;72.08;98934.05;131371;1253;107497;-76
2023/04/25 01:58:49;;;;;;;4.90;4.10;;;;;;;12.34;71.84;98937.20;131533;1262;107411;-75
2023/04/25 02:01:57;;;;;;;4.20;3.30;;;;;;;12.28;72.32;98943.17;131422;1253;106499;-77
2023/04/25 02:05:06;;;;;;;3.80;3.00;;;;;;;12.23;72.94;98941.45;131362;1247;107369;-75
2023/04/25 02:08:17;;;;;;;8.00;5.20;;;;;;;12.20;72.74;98940.07;131386;1253;107387;-75
2023/04/25 02:11:22;;;;;;;4.40;3.10;;;;;;;12.18;72.28;98940.23;131494;1252;107569;-75
2023/04/25 02:15:00;;;;;;;7.30;4.90;;;;;;;12.22;72.70;98940.17;131445;1253;107337;-75
2023/04/25 02:18:16;;;;;;;6.20;4.40;;;;;;;12.15;72.92;98939.80;131469;1263;107343;-74
2023/04/25 02:21:22;;;;;;;4.80;4.00;;;;;;;12.10;72.63;98938.08;131527;1253;107433;-74
2023/04/25 02:24:27;;;;;;;5.20;3.80;;;;;;;12.10;73.02;98941.52;131487;1253;107549;-75
2023/04/25 02:27:34;;;;;;;4.70;3.50;;;;;;;12.05;73.02;98944.48;131453;1255;107402;-75
2023/04/25 02:30:40;;;;;;;4.50;3.60;;;;;;;12.05;73.04;98944.59;131252;1253;107389;-75
2023/04/25 02:33:46;;;;;;;4.60;3.50;;;;;;;12.09;73.11;98940.74;131518;1253;107515;-75
2023/04/25 02:36:52;;;;;;;4.90;3.80;;;;;;;12.10;73.76;98942.06;131460;1254;107809;-75
2023/04/25 02:39:57;;;;;;;5.60;3.80;;;;;;;12.07;73.32;98936.52;131304;1263;108132;-76
2023/04/25 02:43:03;;;;;;;6.10;4.30;;;;;;;12.01;74.10;98930.48;131376;1253;107536;-75
2023/04/25 02:46:08;;;;;;;10.60;6.30;;;;;;;11.92;73.71;98933.83;131424;1253;106716;-75
2023/04/25 02:49:14;;;;;;;6.20;4.40;;;;;;;11.86;74.59;98933.77;131569;1251;107509;-74
2023/04/25 02:52:21;;;;;;;7.50;4.90;;;;;;;11.84;75.11;98934.27;131245;1253;107583;-76
2023/04/25 02:55:32;;;;;;;5.90;4.60;;;;;;;11.82;74.76;98937.84;131459;1247;107486;-77
2023/04/25 02:58:39;;;;;;;5.90;4.40;;;;;;;11.85;74.75;98939.84;131427;1253;107501;-77
2023/04/25 03:01:45;;;;;;;6.40;5.20;;;;;;;11.85;75.04;98943.50;131281;1253;105461;-76
2023/04/25 03:04:51;;;;;;;5.90;5.00;;;;;;;11.84;74.54;98943.81;131428;1253;107505;-76
2023/04/25 03:07:56;;;;;;;8.60;6.50;;;;;;;11.82;74.90;98944.70;131267;1247;107843;-76
2023/04/25 03:11:03;;;;;;;9.00;6.90;;;;;;;11.71;75.99;98943.80;131317;1253;107385;-77
2023/04/25 03:14:08;;;;;;;5.60;4.50;;;;;;;11.67;75.79;98947.17;131376;1247;107327;-77
2023/04/25 03:17:14;;;;;;;10.50;7.60;;;;;;;11.67;75.75;98949.48;131298;1252;107677;-76
2023/04/25 03:20:19;;;;;;;6.90;5.10;;;;;;;11.62;76.34;98949.30;131336;1254;107513;-77
2023/04/25 03:23:26;;;;;;;6.90;5.50;;;;;;;11.56;76.94;98952.49;131335;1261;107333;-76
2023/04/25 03:26:32;;;;;;;7.10;5.00;;;;;;;11.45;76.60;98948.90;131258;1248;107443;-77
2023/04/25 03:29:40;;;;;;;7.40;5.00;;;;;;;11.40;77.60;98955.34;131265;1254;107544;-76
2023/04/25 03:32:46;;;;;;;11.20;6.70;;;;;;;11.32;77.06;98954.77;131360;1253;107564;-76
2023/04/25 03:35:54;;;;;;;6.30;5.40;;;;;;;11.33;77.21;98951.58;131391;1253;107473;-77
2023/04/25 03:39:00;;;;;;;7.80;5.20;;;;;;;11.33;77.65;98953.51;131436;1253;107380;-77
2023/04/25 03:42:07;;;;;;;8.50;6.60;;;;;;;11.29;77.20;98958.55;131375;1253;107415;-77
2023/04/25 03:45:12;;;;;;;7.20;6.10;;;;;;;11.25;77.82;98956.35;131455;1254;105754;-76
2023/04/25 03:48:21;;;;;;;7.20;5.50;;;;;;;11.18;78.56;98960.70;131501;1248;107373;-76
2023/04/25 03:51:27;;;;;;;7.40;5.60;;;;;;;11.12;78.08;98961.49;131327;1254;107475;-77
2023/04/25 03:54:32;;;;;;;6.30;5.70;;;;;;;11.11;77.53;98963.63;131271;1248;108381;-77
2023/04/25 03:57:44;;;;;;;9.10;6.70;;;;;;;11.08;78.15;98963.39;131288;1253;107440;-77
2023/04/25 04:00:50;;;;;;;7.90;6.00;;;;;;;11.01;78.61;98963.35;131406;1253;106527;-77
2023/04/25 04:03:56;;;;;;;8.00;5.60;;;;;;;10.90;78.91;98967.15;131400;1252;106247;-77
2023/04/25 04:07:03;;;;;;;9.20;6.20;;;;;;;10.89;78.54;98968.52;131429;1254;107355;-76
2023/04/25 04:10:14;;;;;;;7.10;5.50;;;;;;;10.86;78.92;98973.02;131390;1266;107382;-77
2023/04/25 04:13:20;;;;;;;6.20;5.40;;;;;;;10.88;78.47;98979.73;131277;1261;107493;-76
2023/04/25 04:16:25;;;;;;;7.40;5.80;;;;;;;10.95;78.79;98983.14;131334;1248;105574;-76
2023/04/25 04:19:31;;;;;;;7.70;5.80;;;;;;;10.95;78.28;98980.73;131373;1252;107419;-77
2023/04/25 04:23:03;;;;;;;7.90;5.00;;;;;;;10.98;78.66;98979.00;131308;1254;107200;-76
2023/04/25 04:26:11;;;;;;;7.70;6.30;;;;;;;10.93;78.54;98973.98;131433;1248;107450;-76
2023/04/25 04:29:23;;;;;;;7.10;5.50;;;;;;;10.85;78.80;98977.61;131450;1252;107429;-76
2023/04/25 04:32:39;;;;;;;9.20;7.00;;;;;;;10.82;78.49;98978.81;131391;1254;107332;-78
2023/04/25 04:35:46;;;;;;;5.40;4.60;;;;;;;10.83;78.71;98983.73;131431;1261;106658;-76
2023/04/25 04:38:52;;;;;;;6.80;5.10;;;;;;;10.79;78.61;98985.21;131362;1253;106389;-77
2023/04/25 04:42:11;;;;;;;6.20;5.00;;;;;;;10.72;78.74;98988.94;131207;1253;107452;-77
2023/04/25 04:45:33;;;;;;;10.70;4.20;;;;;;;10.63;78.51;98995.23;131440;1253;107393;-76
2023/04/25 04:48:58;;;;;;;8.10;4.30;;;;;;;10.64;79.33;98996.63;131473;1251;109358;-76
2023/04/25 04:52:22;;;;;;;5.60;4.40;;;;;;;10.56;78.76;98995.95;131517;1253;107321;-75
2023/04/25 04:55:35;;;;;;;7.50;4.50;;;;;;;10.53;79.00;98996.60;131531;1252;107529;-77
2023/04/25 04:58:50;;;;;;;4.80;4.10;;;;;;;10.54;78.74;99000.80;131412;1253;107420;-76
2023/04/25 05:02:21;;;;;;;4.90;3.90;;;;;;;10.55;78.59;99000.48;131397;1253;108190;-76
2023/04/25 05:05:50;;;;;;;5.80;4.30;;;;;;;10.50;78.06;99005.58;131164;1261;107545;-76
2023/04/25 05:09:29;;;;;;;4.40;3.70;;;;;;;10.42;78.01;99003.91;130991;1253;107502;-76
2023/04/25 05:12:49;;;;;;;4.40;3.40;;;;;;;10.37;78.29;99007.33;131326;1253;107373;-76
2023/04/25 05:16:14;;;;;;;5.60;3.70;;;;;;;10.39;78.18;99011.88;131256;1253;107532;-76
2023/04/25 05:19:30;;;;;;;4.40;3.60;;;;;;;10.37;78.09;99015.55;131352;1254;107352;-78
2023/04/25 05:23:03;;;;;;;5.10;4.10;;;;;;;10.32;78.43;99019.67;131263;1253;107362;-76
2023/04/25 05:26:35;;;;;;;5.40;4.00;;;;;;;10.33;78.61;99019.39;131242;1254;107477;-76
2023/04/25 05:29:59;;;;;;;6.00;3.90;;;;;;;10.36;77.91;99027.41;131422;1247;107494;-76
2023/04/25 05:33:15;;;;;;;5.00;3.80;;;;;;;10.37;77.72;99026.48;131420;1248;107396;-76
2023/04/25 05:36:22;;;;;;;4.00;3.10;;;;;;;10.34;77.95;99027.63;131395;1253;107532;-76
2023/04/25 05:39:29;;;;;;;4.40;3.50;;;;;;;10.33;77.97;99027.95;131356;1253;107464;-77
2023/04/25 05:42:54;;;;;;;6.50;3.60;;;;;;;10.25;78.64;99034.85;131308;1253;107399;-76
2023/04/25 05:46:00;;;;;;;4.60;3.50;;;;;;;10.19;78.57;99038.55;131348;1254;107423;-76
2023/04/25 05:49:25;;;;;;;5.40;3.50;;;;;;;10.17;78.92;99043.81;131119;1253;107510;-77
2023/04/25 05:52:37;;;;;;;4.40;3.90;;;;;;;10.15;78.63;99045.50;131210;1247;107530;-77
2023/04/25 05:56:06;;;;;;;4.30;3.20;;;;;;;10.10;78.81;99051.13;131293;1253;107612;-76
2023/04/25 05:59:12;;;;;;;3.90;3.30;;;;;;;10.15;78.49;99050.40;131470;1253;106403;-77
2023/04/25 06:02:18;;;;;;;3.80;3.40;;;;;;;10.25;78.32;99053.91;131439;1254;107511;-76
2023/04/25 06:05:24;;;;;;;5.00;3.90;;;;;;;10.39;78.51;99052.44;131286;1253;107539;-76
2023/04/25 06:08:30;;;;;;;5.00;3.40;;;;;;;10.43;77.99;99052.86;131103;1253;107333;-76
2023/04/25 06:11:36;;;;;;;4.00;3.50;;;;;;;10.49;77.96;99055.41;132836;1247;107229;-77
2023/04/25 06:14:43;;;;;;;4.70;3.40;;;;;;;10.48;77.83;99058.86;131200;1253;107527;-77
2023/04/25 06:17:49;;;;;;;34.80;19.50;;;;;;;10.50;77.46;99057.94;131227;1257;107542;-77
2023/04/25 06:20:55;;;;;;;5.00;3.90;;;;;;;10.44;77.21;99061.86;131584;1248;107723;-79
2023/04/25 06:24:01;;;;;;;3.50;2.90;;;;;;;10.41;77.01;99068.52;131463;1254;107415;-76
2023/04/25 06:27:07;;;;;;;4.30;3.30;;;;;;;10.47;76.88;99068.52;131241;1253;107478;-76
2023/04/25 06:30:15;;;;;;;5.20;3.20;;;;;;;10.51;76.58;99072.16;131318;1261;107512;-76
2023/04/25 06:33:21;;;;;;;5.20;4.20;;;;;;;10.41;76.43;99074.59;131383;1254;106389;-77
2023/04/25 06:36:28;;;;;;;6.00;4.20;;;;;;;10.27;76.12;99077.11;131283;1253;107572;-77
2023/04/25 06:39:37;;;;;;;7.40;6.50;;;;;;;10.19;76.87;99075.48;131303;1253;107449;-76
2023/04/25 06:42:44;;;;;;;4.30;3.50;;;;;;;10.14;76.92;99074.24;131303;1248;107410;-77
2023/04/25 06:46:10;;;;;;;12.60;7.20;;;;;;;10.10;77.07;99071.42;131307;1253;107514;-76
2023/04/25 06:49:21;;;;;;;4.70;3.20;;;;;;;10.13;76.38;99073.59;131426;1254;107392;-76
2023/04/25 06:52:26;;;;;;;12.70;8.90;;;;;;;10.12;76.61;99071.74;131272;1248;107443;-76
2023/04/25 06:55:32;;;;;;;5.90;4.50;;;;;;;10.20;76.43;99078.27;131258;1253;107524;-77
2023/04/25 06:59:00;;;;;;;10.40;7.00;;;;;;;10.17;76.64;99074.03;131452;1254;107553;-76
2023/04/25 07:02:10;;;;;;;;;;;;;;;10.22;76.72;99074.48;131299;1258;107439;-76
2023/04/25 07:05:16;;;;;;;8.20;5.60;;;;;;;10.37;76.92;99077.75;131474;1253;107495;-76
2023/04/25 07:08:21;;;;;;;22.10;14.80;;;;;;;10.47;76.73;99076.57;131240;1254;106739;-76
2023/04/25 07:11:27;;;;;;;10.10;7.80;;;;;;;10.51;76.28;99071.00;131418;1253;107576;-77
2023/04/25 07:14:32;;;;;;;9.70;8.00;;;;;;;10.58;76.00;99073.74;131375;1252;107563;-76
2023/04/25 07:17:38;;;;;;;8.50;7.60;;;;;;;10.65;76.52;99072.31;131363;1253;107462;-76
2023/04/25 07:20:44;;;;;;;6.30;4.80;;;;;;;10.82;76.24;99071.91;131321;1247;107344;-76
2023/04/25 07:23:50;;;;;;;6.20;4.90;;;;;;;11.01;76.05;99072.13;131287;1253;107445;-76
2023/04/25 07:26:59;;;;;;;12.60;11.40;;;;;;;11.17;75.16;99072.99;131119;1253;107413;-76
2023/04/25 07:30:12;;;;;;;5.20;4.70;;;;;;;11.32;75.10;99070.17;131196;1254;107437;-75
2023/04/25 07:33:20;;;;;;;5.10;4.60;;;;;;;11.19;73.55;99080.00;131330;1253;107372;-76
2023/04/25 07:36:26;;;;;;;5.10;4.60;;;;;;;11.08;74.44;99081.83;131371;1253;107520;-76
2023/04/25 07:39:32;;;;;;;8.30;5.10;;;;;;;11.06;75.07;99083.03;131348;1261;107356;-76
2023/04/25 07:42:39;;;;;;;5.80;5.00;;;;;;;11.14;74.65;99081.05;131278;1253;107400;-77
2023/04/25 07:45:45;;;;;;;5.70;4.90;;;;;;;11.19;74.32;99083.15;131261;1254;107358;-76
2023/04/25 07:48:51;;;;;;;8.10;7.20;;;;;;;11.26;74.28;99081.23;131466;1254;106401;-76
2023/04/25 07:51:57;;;;;;;4.70;4.20;;;;;;;11.32;73.05;99079.96;131329;1261;107439;-76
2023/04/25 07:55:03;;;;;;;8.50;6.50;;;;;;;11.26;72.39;99077.80;131490;1254;107435;-76
2023/04/25 07:58:21;;;;;;;12.30;7.70;;;;;;;11.37;73.28;99076.48;131309;1253;107213;-76
2023/04/25 08:01:27;;;;;;;14.40;8.90;;;;;;;11.45;72.73;99075.88;131208;1254;107459;-77
2023/04/25 08:04:36;;;;;;;14.40;8.90;;;;;;;11.50;71.99;99081.71;131308;1247;107517;-76
2023/04/25 08:07:44;;;;;;;9.90;7.00;;;;;;;11.58;72.16;99083.74;131400;1263;107335;-76
2023/04/25 08:10:51;;;;;;;5.60;4.40;;;;;;;11.60;70.20;99091.26;131436;1261;107456;-76
2023/04/25 08:13:57;;;;;;;4.90;4.00;;;;;;;11.51;70.66;99094.02;131424;1247;107367;-76
2023/04/25 08:17:03;;;;;;;3.90;3.50;;;;;;;11.52;70.70;99093.55;131378;1263;107354;-76
2023/04/25 08:20:11;;;;;;;5.90;4.00;;;;;;;11.55;69.88;99093.63;131364;1253;107398;-76
2023/04/25 08:23:17;;;;;;;4.30;3.50;;;;;;;11.56;70.37;99087.75;131273;1248;107355;-76
2023/04/25 08:26:45;;;;;;;3.70;3.30;;;;;;;11.85;70.04;99089.27;131253;1258;107685;-76
2023/04/25 08:29:54;;;;;;;4.00;3.60;;;;;;;11.93;69.21;99089.71;131341;1254;107406;-76
2023/04/25 08:33:00;;;;;;;4.60;3.60;;;;;;;11.93;68.41;99090.27;131392;1254;107486;-76
2023/04/25 08:36:25;;;;;;;3.50;3.20;;;;;;;11.88;68.46;99090.86;131146;1253;107624;-76
2023/04/25 08:39:30;;;;;;;4.80;3.90;;;;;;;12.04;69.46;99090.55;131153;1254;107518;-76
2023/04/25 08:42:54;;;;;;;10.70;5.90;;;;;;;12.13;68.89;99096.48;131219;1263;107346;-75
2023/04/25 08:46:02;;;;;;;5.90;3.60;;;;;;;12.13;69.60;99094.55;131079;1253;107240;-75
2023/04/25 08:49:19;;;;;;;5.80;3.50;;;;;;;12.23;69.59;99097.14;131142;1263;107382;-76
2023/04/25 08:52:28;;;;;;;4.30;3.10;;;;;;;12.33;69.45;99098.64;131464;1254;107346;-76
2023/04/25 08:55:34;;;;;;;5.00;4.10;;;;;;;12.39;69.06;99104.86;131381;1254;107298;-77
2023/04/25 08:58:40;;;;;;;8.80;6.10;;;;;;;12.28;68.52;99106.34;131264;1264;107534;-76
2023/04/25 09:01:46;;;;;;;8.90;6.40;;;;;;;12.06;68.27;99108.84;131328;1248;106064;-76
2023/04/25 09:04:54;;;;;;;6.70;4.00;;;;;;;11.96;69.14;99111.68;131508;1248;107540;-76
2023/04/25 09:08:00;;;;;;;4.80;4.20;;;;;;;12.11;69.34;99112.88;131435;1253;107498;-76
2023/04/25 09:11:07;;;;;;;4.20;3.80;;;;;;;12.24;68.31;99114.67;131326;1248;107229;-77
2023/04/25 09:14:18;;;;;;;5.40;4.50;;;;;;;12.26;67.67;99121.40;131328;1263;105509;-77
2023/04/25 09:17:40;;;;;;;6.60;3.90;;;;;;;12.24;68.20;99123.41;131508;1254;107486;-77
2023/04/25 09:20:46;;;;;;;10.70;7.20;;;;;;;12.26;67.45;99124.16;131548;1261;107445;-76
2023/04/25 09:23:52;;;;;;;7.60;5.40;;;;;;;12.26;67.39;99129.34;131359;1252;107551;-76
2023/04/25 09:26:57;;;;;;;16.40;9.10;;;;;;;12.30;67.22;99128.35;131383;1254;107226;-76
2023/04/25 09:30:04;;;;;;;8.80;6.20;;;;;;;12.10;65.84;99138.85;131451;1254;107261;-76
2023/04/25 09:33:36;;;;;;;10.60;7.10;;;;;;;11.89;66.79;99140.11;131356;1253;107386;-76
2023/04/25 09:36:42;;;;;;;6.10;4.40;;;;;;;11.83;66.69;99141.17;131244;1261;107458;-76
2023/04/25 09:40:10;;;;;;;4.90;3.90;;;;;;;11.69;66.45;99141.80;131295;1254;107270;-76
2023/04/25 09:43:29;;;;;;;16.30;11.20;;;;;;;11.61;66.90;99140.52;131239;1253;107483;-76
2023/04/25 09:46:38;;;;;;;6.90;4.70;;;;;;;11.57;66.91;99142.93;131312;1248;107334;-76
2023/04/25 09:50:14;;;;;;;11.60;9.20;;;;;;;11.75;67.92;99140.59;131295;1253;107350;-76
2023/04/25 09:53:20;;;;;;;13.60;10.20;;;;;;;11.93;67.19;99141.96;131192;1253;107424;-76
2023/04/25 09:56:39;;;;;;;13.50;9.60;;;;;;;12.21;67.11;99142.05;131177;1254;195689;-77
2023/04/25 09:59:48;;;;;;;18.50;12.90;;;;;;;12.48;67.21;99143.48;131154;1263;107515;-76
2023/04/25 10:02:55;;;;;;;8.60;6.30;;;;;;;12.69;65.34;99144.53;131472;1253;107553;-76
2023/04/25 10:06:26;;;;;;;7.80;5.70;;;;;;;12.66;64.65;99146.68;131436;1253;107557;-76
2023/04/25 10:09:37;;;;;;;6.70;4.40;;;;;;;12.60;64.25;99151.09;131470;1257;107537;-76
2023/04/25 10:12:43;;;;;;;5.40;4.10;;;;;;;12.61;64.10;99150.48;131289;1261;107482;-76
2023/04/25 10:15:50;;;;;;;10.50;8.80;;;;;;;12.78;65.54;99148.11;131323;1254;107318;-76
2023/04/25 10:18:56;;;;;;;7.20;5.90;;;;;;;13.04;63.93;99154.66;131405;1253;107521;-76
2023/04/25 10:22:08;;;;;;;9.60;7.60;;;;;;;13.07;63.60;99157.28;131183;1254;107529;-76
2023/04/25 10:25:14;;;;;;;9.30;6.30;;;;;;;13.07;63.78;99153.95;131318;1253;107510;-76
2023/04/25 10:28:20;;;;;;;7.10;5.80;;;;;;;13.26;63.94;99154.39;131460;1260;107360;-76
2023/04/25 10:31:26;;;;;;;12.30;9.20;;;;;;;13.31;61.50;99154.13;131408;1253;107553;-76
2023/04/25 10:34:42;;;;;;;11.50;7.80;;;;;;;13.23;61.84;99155.44;131547;1253;107543;-78
2023/04/25 10:38:04;;;;;;;6.90;5.40;;;;;;;13.28;62.08;99152.30;131392;1260;107456;-76
2023/04/25 10:41:11;;;;;;;6.90;5.20;;;;;;;13.42;62.01;99149.51;131529;1251;107510;-76
2023/04/25 10:44:16;;;;;;;6.30;5.70;;;;;;;13.49;63.00;99145.71;131237;1254;106523;-76
2023/04/25 10:47:37;;;;;;;5.50;4.90;;;;;;;13.58;62.35;99147.72;131466;1253;106524;-76
2023/04/25 10:50:42;;;;;;;6.30;5.30;;;;;;;13.61;62.67;99144.85;131448;1253;107545;-76
2023/04/25 10:53:57;;;;;;;8.50;5.70;;;;;;;13.76;62.37;99140.98;131255;1252;107221;-76
2023/04/25 10:57:02;;;;;;;10.00;7.50;;;;;;;13.92;61.49;99141.00;131507;1261;107217;-76
2023/04/25 11:00:18;;;;;;;9.00;6.60;;;;;;;13.92;59.15;99142.81;131431;1255;107405;-76
2023/04/25 11:03:26;;;;;;;6.00;5.00;;;;;;;14.00;61.42;99132.65;131295;1260;107738;-76
2023/04/25 11:06:44;;;;;;;6.60;5.50;;;;;;;14.15;60.90;99130.45;131359;1254;107299;-76
2023/04/25 11:09:49;;;;;;;7.50;6.30;;;;;;;14.25;60.90;99132.56;131127;1254;107211;-76
2023/04/25 11:12:55;;;;;;;9.40;7.10;;;;;;;14.09;57.67;99137.20;131280;1261;107333;-76
2023/04/25 11:16:01;;;;;;;4.90;4.40;;;;;;;13.87;57.91;99136.45;131215;1255;106241;-76
2023/04/25 11:19:06;;;;;;;6.50;4.90;;;;;;;13.70;58.14;99138.87;131320;1263;107492;-76
2023/04/25 11:22:13;;;;;;;5.20;4.60;;;;;;;13.56;59.33;99133.00;131284;1254;107536;-76
2023/04/25 11:25:18;;;;;;;6.20;5.40;;;;;;;13.50;59.39;99135.23;131330;1260;108768;-76
2023/04/25 11:28:24;;;;;;;10.50;8.70;;;;;;;13.44;57.96;99137.48;131282;1252;108496;-76
2023/04/25 11:31:31;;;;;;;6.40;5.50;;;;;;;13.40;59.57;99131.29;131281;1254;107380;-76
2023/04/25 11:34:36;;;;;;;5.50;4.90;;;;;;;13.32;58.50;99131.44;131269;1254;107529;-76
2023/04/25 11:37:43;;;;;;;6.00;5.40;;;;;;;13.25;59.87;99131.64;131290;1248;106703;-76
2023/04/25 11:40:52;;;;;;;5.50;4.90;;;;;;;13.17;59.41;99131.55;131407;1254;107207;-76
2023/04/25 11:43:58;;;;;;;5.20;4.60;;;;;;;13.05;59.36;99130.40;131234;1254;106400;-76
2023/04/25 11:47:03;;;;;;;6.70;5.50;;;;;;;13.10;60.11;99134.71;131286;1254;107375;-77
2023/04/25 11:50:10;;;;;;;5.80;5.30;;;;;;;13.19;59.61;99134.19;131320;1257;107506;-76
2023/04/25 11:53:18;;;;;;;5.40;4.90;;;;;;;13.19;59.08;99134.39;131434;1253;107541;-77
2023/04/25 11:56:24;;;;;;;5.60;4.90;;;;;;;13.22;59.79;99133.05;131407;1252;107520;-76
2023/04/25 11:59:30;;;;;;;6.50;5.50;;;;;;;13.31;59.63;99134.32;131506;1261;107458;-76
2023/04/25 12:02:37;;;;;;;6.20;5.60;;;;;;;13.23;58.63;99136.52;131462;1248;107330;-77
2023/04/25 12:05:43;;;;;;;6.80;5.50;;;;;;;13.14;58.90;99131.08;131546;1253;107080;-76
2023/04/25 12:09:04;;;;;;;5.60;4.70;;;;;;;13.09;58.68;99135.98;131317;1261;107534;-76
2023/04/25 12:12:12;;;;;;;7.90;5.20;;;;;;;13.11;58.76;99134.64;131434;1252;107478;-76
2023/04/25 12:15:20;;;;;;;4.90;4.40;;;;;;;13.13;57.99;99132.67;131267;1255;107679;-75
2023/04/25 12:18:27;;;;;;;5.20;4.60;;;;;;;13.02;56.88;99137.60;131370;1261;107502;-75
2023/04/25 12:21:34;;;;;;;4.40;3.90;;;;;;;12.85;55.74;99145.35;131402;1257;107380;-75
2023/04/25 12:24:40;;;;;;;5.40;4.60;;;;;;;12.74;57.23;99142.91;131240;1255;108151;-76
2023/04/25 12:27:46;;;;;;;5.80;5.10;;;;;;;12.76;57.60;99144.55;131338;1247;107341;-76
2023/04/25 12:31:01;;;;;;;5.20;4.70;;;;;;;12.77;57.85;99146.64;131272;1248;107533;-76
2023/04/25 12:34:07;;;;;;;5.10;4.50;;;;;;;12.86;58.71;99139.92;131505;1257;105981;-76
2023/04/25 12:37:13;;;;;;;6.10;4.60;;;;;;;13.05;58.52;99139.55;131363;1248;106679;-75
2023/04/25 12:40:19;;;;;;;6.70;5.40;;;;;;;13.14;58.65;99138.94;131290;1248;107496;-75
2023/04/25 12:43:25;;;;;;;6.10;5.20;;;;;;;13.00;58.34;99140.75;131344;1254;107467;-76
2023/04/25 12:46:30;;;;;;;6.70;5.80;;;;;;;12.85;59.26;99146.34;131477;1253;107405;-75
2023/04/25 12:49:36;;;;;;;5.80;5.20;;;;;;;12.79;60.24;99144.48;131415;1257;107232;-77
2023/04/25 12:52:41;;;;;;;6.40;5.00;;;;;;;12.81;60.26;99145.89;131443;1248;106068;-76
2023/04/25 12:55:47;;;;;;;14.00;10.40;;;;;;;12.86;60.58;99144.41;131429;1248;107117;-77
2023/04/25 12:58:53;;;;;;;24.20;16.40;;;;;;;12.97;60.84;99141.64;131444;1253;106104;-76
2023/04/25 13:01:59;;;;;;;10.30;8.30;;;;;;;12.94;61.18;99139.27;131456;1248;107211;-76
2023/04/25 13:05:05;;;;;;;8.90;7.30;;;;;;;12.84;61.47;99141.50;131538;1259;106554;-76
2023/04/25 13:08:11;;;;;;;8.60;7.00;;;;;;;12.75;61.69;99138.35;131400;1253;107524;-76
2023/04/25 13:11:16;;;;;;;9.00;7.80;;;;;;;12.73;62.11;99139.32;131474;1252;107281;-76
2023/04/25 13:14:22;;;;;;;9.00;7.20;;;;;;;12.71;62.37;99140.70;131443;1253;107525;-76
2023/04/25 13:17:28;;;;;;;8.30;6.40;;;;;;;12.62;63.17;99134.50;131450;1254;107501;-76
2023/04/25 13:20:33;;;;;;;9.70;6.50;;;;;;;12.63;63.24;99136.70;131500;1254;107427;-76
2023/04/25 13:23:40;;;;;;;7.70;6.20;;;;;;;12.64;63.54;99134.27;131398;1257;107255;-76
2023/04/25 13:26:46;;;;;;;6.70;6.00;;;;;;;12.54;63.50;99132.23;131452;1253;107486;-76
2023/04/25 13:29:52;;;;;;;7.40;6.30;;;;;;;12.56;63.67;99135.52;131467;1248;107646;-76
2023/04/25 13:33:02;;;;;;;13.70;9.90;;;;;;;12.49;64.20;99133.45;131496;1254;107454;-76
2023/04/25 13:36:08;;;;;;;18.20;13.20;;;;;;;12.45;63.59;99131.61;131469;1258;106659;-76
2023/04/25 13:39:14;;;;;;;9.30;6.30;;;;;;;12.47;63.39;99138.54;131470;1254;106545;-76
2023/04/25 13:42:19;;;;;;;5.70;5.00;;;;;;;12.36;63.05;99137.38;131382;1254;107492;-76
2023/04/25 13:45:25;;;;;;;6.00;4.90;;;;;;;12.26;62.79;99137.36;131359;1253;107478;-76
2023/04/25 13:48:31;;;;;;;12.00;7.10;;;;;;;12.20;63.20;99142.21;131512;1257;106048;-76
2023/04/25 13:51:36;;;;;;;10.00;5.80;;;;;;;12.05;63.21;99144.27;131421;1254;107455;-76
2023/04/25 13:54:42;;;;;;;12.40;8.60;;;;;;;11.95;63.58;99145.24;131498;1252;107534;-75
2023/04/25 13:57:47;;;;;;;9.20;6.40;;;;;;;11.92;64.42;99141.02;131433;1254;107599;-75
2023/04/25 14:00:53;;;;;;;6.60;5.20;;;;;;;11.86;63.84;99145.08;131460;1248;107139;-75
2023/04/25 14:03:59;;;;;;;33.80;21.30;;;;;;;11.83;64.02;99147.66;131662;1253;107221;-76
2023/04/25 14:07:06;;;;;;;6.60;5.70;;;;;;;11.76;63.55;99149.69;131546;1248;107458;-76
2023/04/25 14:10:12;;;;;;;23.50;16.00;;;;;;;11.61;63.88;99157.64;131559;1248;107237;-75
2023/04/25 14:13:18;;;;;;;39.40;26.80;;;;;;;11.43;64.44;99159.68;131504;1253;107446;-76
2023/04/25 14:16:23;;;;;;;7.40;6.10;;;;;;;11.31;64.81;99166.88;131510;1248;107576;-76
2023/04/25 14:19:29;;;;;;;7.50;5.70;;;;;;;11.22;65.31;99167.66;131536;1258;107552;-76
2023/04/25 14:22:35;;;;;;;6.00;4.90;;;;;;;11.16;65.62;99170.26;131429;1248;108204;-76
2023/04/25 14:25:41;;;;;;;6.70;5.50;;;;;;;11.14;66.53;99170.02;131451;1257;107417;-76
2023/04/25 14:28:47;;;;;;;14.60;13.10;;;;;;;11.12;66.53;99166.33;131351;1248;107194;-76